sensor_id;sensor_type;location;lat;lon;timestamp;temperature;humidity
9403;DHT22;4741;49.834;10.740;2022-08-19T00:00:51;20.40;99.90
9403;DHT22;4741;49.834;10.740;2022-08-19T00:03:18;20.70;99.90
9403;DHT22;4741;49.834;10.740;2022-08-19T00:05:44;21.00;99.90
9403;DHT22;4741;49.834;10.740;2022-08-19T00:08:11;20.60;99.90
9403;DHT22;4741;49.834;10.740;2022-08-19T00:10:38;20.80;99.90
9403;DHT22;4741;49.834;10.740;2022-08-19T00:13:05;20.50;99.90
9403;DHT22;4741;49.834;10.740;2022-08-19T00:15:31;20.90;99.90
9403;DHT22;4741;49.834;10.740;2022-08-19T00:17:58;20.70;99.90
9403;DHT22;4741;49.834;10.740;2022-08-19T00:20:25;20.60;99.90
9403;DHT22;4741;49.834;10.740;2022-08-19T00:22:52;19.70;99.90
9403;DHT22;4741;49.834;10.740;2022-08-19T00:25:19;20.70;99.90
9403;DHT22;4741;49.834;10.740;2022-08-19T00:27:55;21.00;99.90
9403;DHT22;4741;49.834;10.740;2022-08-19T00:30:23;20.60;99.90
9403;DHT22;4741;49.834;10.740;2022-08-19T00:32:50;20.60;99.90
9403;DHT22;4741;49.834;10.740;2022-08-19T00:35:17;20.30;99.90
9403;DHT22;4741;49.834;10.740;2022-08-19T00:40:12;19.50;99.90
9403;DHT22;4741;49.834;10.740;2022-08-19T00:47:33;19.40;99.90
9403;DHT22;4741;49.834;10.740;2022-08-19T01:35:08;19.40;99.90
9403;DHT22;4741;49.834;10.740;2022-08-19T01:37:48;19.50;99.90
9403;DHT22;4741;49.834;10.740;2022-08-19T01:40:18;19.40;99.90
9403;DHT22;4741;49.834;10.740;2022-08-19T01:42:47;20.70;99.90
9403;DHT22;4741;49.834;10.740;2022-08-19T01:45:14;20.50;99.90
9403;DHT22;4741;49.834;10.740;2022-08-19T01:47:40;20.30;99.90
9403;DHT22;4741;49.834;10.740;2022-08-19T01:50:09;21.00;99.90
9403;DHT22;4741;49.834;10.740;2022-08-19T01:55:04;19.60;99.90
9403;DHT22;4741;49.834;10.740;2022-08-19T01:59:58;19.40;99.90
9403;DHT22;4741;49.834;10.740;2022-08-19T02:04:53;19.60;99.90
9403;DHT22;4741;49.834;10.740;2022-08-19T02:07:20;19.30;99.90
9403;DHT22;4741;49.834;10.740;2022-08-19T02:09:48;19.00;99.90
9403;DHT22;4741;49.834;10.740;2022-08-19T02:12:14;20.40;99.90
9403;DHT22;4741;49.834;10.740;2022-08-19T02:14:42;19.90;99.90
9403;DHT22;4741;49.834;10.740;2022-08-19T02:17:09;21.40;99.90
9403;DHT22;4741;49.834;10.740;2022-08-19T02:22:04;19.70;99.90
9403;DHT22;4741;49.834;10.740;2022-08-19T02:24:31;20.50;99.90
9403;DHT22;4741;49.834;10.740;2022-08-19T02:29:25;19.60;99.90
9403;DHT22;4741;49.834;10.740;2022-08-19T02:31:51;19.20;99.90
9403;DHT22;4741;49.834;10.740;2022-08-19T02:34:18;20.50;99.90
9403;DHT22;4741;49.834;10.740;2022-08-19T04:23:08;19.30;99.90
9403;DHT22;4741;49.834;10.740;2022-08-19T04:25:36;20.50;99.90
9403;DHT22;4741;49.834;10.740;2022-08-19T04:28:03;19.10;99.90
9403;DHT22;4741;49.834;10.740;2022-08-19T04:30:30;19.20;99.90
9403;DHT22;4741;49.834;10.740;2022-08-19T04:32:57;19.30;99.90
9403;DHT22;4741;49.834;10.740;2022-08-19T04:35:23;19.40;99.90
9403;DHT22;4741;49.834;10.740;2022-08-19T04:37:50;19.50;99.90
9403;DHT22;4741;49.834;10.740;2022-08-19T04:40:17;19.90;99.90
9403;DHT22;4741;49.834;10.740;2022-08-19T04:43:02;19.20;99.90
9403;DHT22;4741;49.834;10.740;2022-08-19T04:45:29;19.10;99.90
9403;DHT22;4741;49.834;10.740;2022-08-19T04:48:05;19.10;99.90
9403;DHT22;4741;49.834;10.740;2022-08-19T04:50:56;19.20;99.90
9403;DHT22;4741;49.834;10.740;2022-08-19T04:53:26;19.10;99.90
9403;DHT22;4741;49.834;10.740;2022-08-19T04:55:55;19.10;99.90
9403;DHT22;4741;49.834;10.740;2022-08-19T04:58:23;19.30;99.90
9403;DHT22;4741;49.834;10.740;2022-08-19T05:00:51;19.40;99.90
9403;DHT22;4741;49.834;10.740;2022-08-19T05:03:18;19.30;99.90
9403;DHT22;4741;49.834;10.740;2022-08-19T05:05:46;19.20;99.90
9403;DHT22;4741;49.834;10.740;2022-08-19T05:08:16;19.10;99.90
9403;DHT22;4741;49.834;10.740;2022-08-19T05:10:57;19.20;99.90
9403;DHT22;4741;49.834;10.740;2022-08-19T05:13:23;19.00;99.90
9403;DHT22;4741;49.834;10.740;2022-08-19T05:15:57;19.00;99.90
9403;DHT22;4741;49.834;10.740;2022-08-19T05:18:25;19.10;99.90
9403;DHT22;4741;49.834;10.740;2022-08-19T08:48:00;22.30;99.90
9403;DHT22;4741;49.834;10.740;2022-08-19T08:52:56;22.70;99.90
9403;DHT22;4741;49.834;10.740;2022-08-19T08:55:24;22.90;99.90
9403;DHT22;4741;49.834;10.740;2022-08-19T09:00:31;23.10;99.90
9403;DHT22;4741;49.834;10.740;2022-08-19T09:02:58;22.70;99.90
9403;DHT22;4741;49.834;10.740;2022-08-19T09:05:30;24.60;99.90
9403;DHT22;4741;49.834;10.740;2022-08-19T09:10:46;22.90;99.90
9403;DHT22;4741;49.834;10.740;2022-08-19T09:15:59;22.80;99.90
9403;DHT22;4741;49.834;10.740;2022-08-19T09:21:14;23.00;99.90
9403;DHT22;4741;49.834;10.740;2022-08-19T09:23:40;23.60;99.90
9403;DHT22;4741;49.834;10.740;2022-08-19T09:26:09;23.30;99.90
9403;DHT22;4741;49.834;10.740;2022-08-19T09:33:31;24.00;99.90
9403;DHT22;4741;49.834;10.740;2022-08-19T09:36:02;25.10;99.90
9403;DHT22;4741;49.834;10.740;2022-08-19T09:38:34;23.80;99.90
9403;DHT22;4741;49.834;10.740;2022-08-19T09:41:10;24.20;99.90
9403;DHT22;4741;49.834;10.740;2022-08-19T09:43:41;24.70;99.90
9403;DHT22;4741;49.834;10.740;2022-08-19T09:46:13;25.50;99.90
9403;DHT22;4741;49.834;10.740;2022-08-19T09:48:43;23.10;99.90
9403;DHT22;4741;49.834;10.740;2022-08-19T09:51:15;23.00;99.90
9403;DHT22;4741;49.834;10.740;2022-08-19T09:53:43;22.80;99.90
9403;DHT22;4741;49.834;10.740;2022-08-19T09:56:10;24.30;99.90
9403;DHT22;4741;49.834;10.740;2022-08-19T09:58:38;22.30;99.90
9403;DHT22;4741;49.834;10.740;2022-08-19T10:01:05;22.10;99.90
9403;DHT22;4741;49.834;10.740;2022-08-19T10:03:34;23.30;99.90
9403;DHT22;4741;49.834;10.740;2022-08-19T10:06:02;22.30;99.90
9403;DHT22;4741;49.834;10.740;2022-08-19T10:08:31;23.80;99.90
9403;DHT22;4741;49.834;10.740;2022-08-19T10:10:59;22.90;99.90
9403;DHT22;4741;49.834;10.740;2022-08-19T10:13:48;23.50;99.90
9403;DHT22;4741;49.834;10.740;2022-08-19T10:16:16;23.30;99.90
9403;DHT22;4741;49.834;10.740;2022-08-19T10:18:46;23.40;99.90
9403;DHT22;4741;49.834;10.740;2022-08-19T10:23:43;23.40;99.90
9403;DHT22;4741;49.834;10.740;2022-08-19T10:26:16;21.80;99.90
9403;DHT22;4741;49.834;10.740;2022-08-19T10:28:44;22.50;99.90
9403;DHT22;4741;49.834;10.740;2022-08-19T10:31:13;22.70;99.90
9403;DHT22;4741;49.834;10.740;2022-08-19T10:33:45;23.10;99.90
9403;DHT22;4741;49.834;10.740;2022-08-19T10:36:21;23.50;99.90
9403;DHT22;4741;49.834;10.740;2022-08-19T10:38:50;25.00;99.90
9403;DHT22;4741;49.834;10.740;2022-08-19T10:53:57;24.20;99.90
9403;DHT22;4741;49.834;10.740;2022-08-19T10:56:25;24.20;99.90
9403;DHT22;4741;49.834;10.740;2022-08-19T11:01:39;23.50;99.90
9403;DHT22;4741;49.834;10.740;2022-08-19T11:04:06;23.10;99.90
9403;DHT22;4741;49.834;10.740;2022-08-19T11:06:36;23.20;99.90
9403;DHT22;4741;49.834;10.740;2022-08-19T11:09:05;23.40;99.90
9403;DHT22;4741;49.834;10.740;2022-08-19T11:11:32;23.80;99.90
9403;DHT22;4741;49.834;10.740;2022-08-19T11:14:03;24.80;99.90
9403;DHT22;4741;49.834;10.740;2022-08-19T11:16:30;23.90;99.90
9403;DHT22;4741;49.834;10.740;2022-08-19T11:18:58;24.60;99.90
9403;DHT22;4741;49.834;10.740;2022-08-19T11:21:27;24.20;99.90
9403;DHT22;4741;49.834;10.740;2022-08-19T11:23:55;23.10;99.90
9403;DHT22;4741;49.834;10.740;2022-08-19T11:26:22;24.30;99.90
9403;DHT22;4741;49.834;10.740;2022-08-19T11:28:49;23.00;99.90
9403;DHT22;4741;49.834;10.740;2022-08-19T11:31:22;22.90;99.90
9403;DHT22;4741;49.834;10.740;2022-08-19T11:33:55;22.20;99.90
9403;DHT22;4741;49.834;10.740;2022-08-19T11:36:22;23.60;99.90
9403;DHT22;4741;49.834;10.740;2022-08-19T11:38:50;24.00;99.90
9403;DHT22;4741;49.834;10.740;2022-08-19T11:41:17;22.30;99.90
9403;DHT22;4741;49.834;10.740;2022-08-19T11:46:13;22.10;99.90
9403;DHT22;4741;49.834;10.740;2022-08-19T11:48:40;23.10;99.90
9403;DHT22;4741;49.834;10.740;2022-08-19T11:51:19;23.50;99.90
9403;DHT22;4741;49.834;10.740;2022-08-19T11:53:46;22.20;99.90
9403;DHT22;4741;49.834;10.740;2022-08-19T11:56:12;24.10;99.90
9403;DHT22;4741;49.834;10.740;2022-08-19T11:58:39;24.10;99.90
9403;DHT22;4741;49.834;10.740;2022-08-19T12:01:09;23.20;99.90
9403;DHT22;4741;49.834;10.740;2022-08-19T12:03:37;24.00;99.90
9403;DHT22;4741;49.834;10.740;2022-08-19T12:06:05;23.90;99.90
9403;DHT22;4741;49.834;10.740;2022-08-19T12:08:32;22.70;99.90
9403;DHT22;4741;49.834;10.740;2022-08-19T12:10:59;24.40;99.90
9403;DHT22;4741;49.834;10.740;2022-08-19T12:13:28;22.80;99.90
9403;DHT22;4741;49.834;10.740;2022-08-19T12:15:54;24.20;99.90
9403;DHT22;4741;49.834;10.740;2022-08-19T12:18:22;23.80;99.90
9403;DHT22;4741;49.834;10.740;2022-08-19T12:20:50;24.40;99.90
9403;DHT22;4741;49.834;10.740;2022-08-19T12:23:17;24.80;99.90
9403;DHT22;4741;49.834;10.740;2022-08-19T12:25:44;24.50;99.90
9403;DHT22;4741;49.834;10.740;2022-08-19T12:28:19;23.20;99.90
9403;DHT22;4741;49.834;10.740;2022-08-19T12:30:46;24.70;99.90
9403;DHT22;4741;49.834;10.740;2022-08-19T12:33:13;23.80;99.90
9403;DHT22;4741;49.834;10.740;2022-08-19T12:35:41;23.90;99.90
9403;DHT22;4741;49.834;10.740;2022-08-19T12:38:11;23.70;99.90
9403;DHT22;4741;49.834;10.740;2022-08-19T12:40:37;24.10;99.90
9403;DHT22;4741;49.834;10.740;2022-08-19T12:43:06;23.70;99.90
9403;DHT22;4741;49.834;10.740;2022-08-19T12:45:33;23.30;99.90
9403;DHT22;4741;49.834;10.740;2022-08-19T12:48:02;24.40;99.90
9403;DHT22;4741;49.834;10.740;2022-08-19T12:50:49;23.30;99.90
9403;DHT22;4741;49.834;10.740;2022-08-19T12:53:15;24.60;99.90
9403;DHT22;4741;49.834;10.740;2022-08-19T12:55:42;24.40;99.90
9403;DHT22;4741;49.834;10.740;2022-08-19T12:58:09;24.50;99.90
9403;DHT22;4741;49.834;10.740;2022-08-19T13:00:36;23.30;99.90
9403;DHT22;4741;49.834;10.740;2022-08-19T13:03:03;23.70;99.90
9403;DHT22;4741;49.834;10.740;2022-08-19T13:05:31;24.20;99.90
9403;DHT22;4741;49.834;10.740;2022-08-19T13:07:58;23.50;99.90
9403;DHT22;4741;49.834;10.740;2022-08-19T13:10:27;23.90;99.90
9403;DHT22;4741;49.834;10.740;2022-08-19T13:12:54;22.80;99.90
9403;DHT22;4741;49.834;10.740;2022-08-19T13:15:22;24.40;99.90
9403;DHT22;4741;49.834;10.740;2022-08-19T13:17:51;24.10;99.90
9403;DHT22;4741;49.834;10.740;2022-08-19T13:20:19;23.30;99.90
9403;DHT22;4741;49.834;10.740;2022-08-19T13:22:46;23.10;99.90
9403;DHT22;4741;49.834;10.740;2022-08-19T13:25:15;24.20;99.90
9403;DHT22;4741;49.834;10.740;2022-08-19T13:27:44;24.40;99.90
9403;DHT22;4741;49.834;10.740;2022-08-19T13:30:11;24.00;99.90
9403;DHT22;4741;49.834;10.740;2022-08-19T13:32:58;22.70;99.90
9403;DHT22;4741;49.834;10.740;2022-08-19T13:35:41;22.50;99.90
9403;DHT22;4741;49.834;10.740;2022-08-19T13:38:09;22.40;99.90
9403;DHT22;4741;49.834;10.740;2022-08-19T13:40:38;22.00;99.90
9403;DHT22;4741;49.834;10.740;2022-08-19T13:43:07;22.00;99.90
9403;DHT22;4741;49.834;10.740;2022-08-19T13:45:53;22.80;99.90
9403;DHT22;4741;49.834;10.740;2022-08-19T13:48:23;21.90;99.90
9403;DHT22;4741;49.834;10.740;2022-08-19T13:50:50;21.70;99.90
9403;DHT22;4741;49.834;10.740;2022-08-19T13:53:17;22.60;99.90
9403;DHT22;4741;49.834;10.740;2022-08-19T13:55:44;21.10;99.90
9403;DHT22;4741;49.834;10.740;2022-08-19T13:58:11;22.20;99.90
9403;DHT22;4741;49.834;10.740;2022-08-19T14:00:39;22.50;99.90
9403;DHT22;4741;49.834;10.740;2022-08-19T14:03:06;21.00;99.90
9403;DHT22;4741;49.834;10.740;2022-08-19T14:05:35;22.20;99.90
9403;DHT22;4741;49.834;10.740;2022-08-19T14:08:02;21.20;99.90
9403;DHT22;4741;49.834;10.740;2022-08-19T14:12:58;21.10;99.90
9403;DHT22;4741;49.834;10.740;2022-08-19T14:15:25;22.90;99.90
9403;DHT22;4741;49.834;10.740;2022-08-19T14:17:52;22.50;99.90
9403;DHT22;4741;49.834;10.740;2022-08-19T14:20:19;22.50;99.90
9403;DHT22;4741;49.834;10.740;2022-08-19T14:22:51;22.70;99.90
9403;DHT22;4741;49.834;10.740;2022-08-19T14:25:20;22.50;99.90
9403;DHT22;4741;49.834;10.740;2022-08-19T14:27:48;20.90;99.90
9403;DHT22;4741;49.834;10.740;2022-08-19T14:30:16;21.70;99.90
9403;DHT22;4741;49.834;10.740;2022-08-19T14:32:43;22.50;99.90
9403;DHT22;4741;49.834;10.740;2022-08-19T14:35:11;22.60;99.90
9403;DHT22;4741;49.834;10.740;2022-08-19T14:37:39;21.00;99.90
9403;DHT22;4741;49.834;10.740;2022-08-19T14:40:12;21.70;99.90
9403;DHT22;4741;49.834;10.740;2022-08-19T14:42:40;21.20;99.90
9403;DHT22;4741;49.834;10.740;2022-08-19T14:45:07;22.50;99.90
9403;DHT22;4741;49.834;10.740;2022-08-19T14:47:34;21.10;99.90
9403;DHT22;4741;49.834;10.740;2022-08-19T14:50:01;22.60;99.90
9403;DHT22;4741;49.834;10.740;2022-08-19T14:52:30;21.40;99.90
9403;DHT22;4741;49.834;10.740;2022-08-19T14:54:57;20.80;99.90
9403;DHT22;4741;49.834;10.740;2022-08-19T14:57:24;21.60;99.90
9403;DHT22;4741;49.834;10.740;2022-08-19T14:59:50;22.50;99.90
9403;DHT22;4741;49.834;10.740;2022-08-19T15:02:17;22.00;99.90
9403;DHT22;4741;49.834;10.740;2022-08-19T15:05:00;20.90;99.90
9403;DHT22;4741;49.834;10.740;2022-08-19T15:07:27;21.90;99.90
9403;DHT22;4741;49.834;10.740;2022-08-19T15:09:55;22.60;99.90
9403;DHT22;4741;49.834;10.740;2022-08-19T15:12:21;20.70;99.90
9403;DHT22;4741;49.834;10.740;2022-08-19T15:14:49;22.40;99.90
9403;DHT22;4741;49.834;10.740;2022-08-19T15:17:22;22.60;99.90
9403;DHT22;4741;49.834;10.740;2022-08-19T15:20:09;22.20;99.90
9403;DHT22;4741;49.834;10.740;2022-08-19T15:22:36;21.30;99.90
9403;DHT22;4741;49.834;10.740;2022-08-19T15:25:04;22.40;99.90
9403;DHT22;4741;49.834;10.740;2022-08-19T15:27:31;21.10;99.90
9403;DHT22;4741;49.834;10.740;2022-08-19T15:29:58;22.00;99.90
9403;DHT22;4741;49.834;10.740;2022-08-19T15:32:27;21.00;99.90
9403;DHT22;4741;49.834;10.740;2022-08-19T15:34:54;22.00;99.90
9403;DHT22;4741;49.834;10.740;2022-08-19T15:37:21;21.70;99.90
9403;DHT22;4741;49.834;10.740;2022-08-19T15:39:50;20.80;99.90
9403;DHT22;4741;49.834;10.740;2022-08-19T15:42:17;22.10;99.90
9403;DHT22;4741;49.834;10.740;2022-08-19T15:44:55;21.90;99.90
9403;DHT22;4741;49.834;10.740;2022-08-19T15:49:53;20.40;99.90
9403;DHT22;4741;49.834;10.740;2022-08-19T15:52:25;20.50;99.90
9403;DHT22;4741;49.834;10.740;2022-08-19T15:54:52;21.60;99.90
9403;DHT22;4741;49.834;10.740;2022-08-19T15:57:19;21.40;99.90
9403;DHT22;4741;49.834;10.740;2022-08-19T15:59:48;21.70;99.90
9403;DHT22;4741;49.834;10.740;2022-08-19T16:02:36;21.20;99.90
9403;DHT22;4741;49.834;10.740;2022-08-19T16:05:25;20.40;99.90
9403;DHT22;4741;49.834;10.740;2022-08-19T16:08:10;22.10;99.90
9403;DHT22;4741;49.834;10.740;2022-08-19T16:10:38;21.60;99.90
9403;DHT22;4741;49.834;10.740;2022-08-19T16:13:05;20.40;99.90
9403;DHT22;4741;49.834;10.740;2022-08-19T16:15:32;20.70;99.90
9403;DHT22;4741;49.834;10.740;2022-08-19T16:17:59;21.50;99.90
9403;DHT22;4741;49.834;10.740;2022-08-19T16:20:28;21.80;99.90
9403;DHT22;4741;49.834;10.740;2022-08-19T16:22:55;22.20;99.90
9403;DHT22;4741;49.834;10.740;2022-08-19T16:25:24;21.70;99.90
9403;DHT22;4741;49.834;10.740;2022-08-19T16:27:53;21.90;99.90
9403;DHT22;4741;49.834;10.740;2022-08-19T16:30:34;20.80;99.90
9403;DHT22;4741;49.834;10.740;2022-08-19T16:33:01;20.20;99.90
9403;DHT22;4741;49.834;10.740;2022-08-19T16:35:28;20.30;99.90
9403;DHT22;4741;49.834;10.740;2022-08-19T16:37:54;20.20;99.90
9403;DHT22;4741;49.834;10.740;2022-08-19T16:40:21;20.20;99.90
9403;DHT22;4741;49.834;10.740;2022-08-19T16:42:48;20.10;99.90
9403;DHT22;4741;49.834;10.740;2022-08-19T16:45:15;19.60;99.90
9403;DHT22;4741;49.834;10.740;2022-08-19T16:47:46;19.50;99.90
9403;DHT22;4741;49.834;10.740;2022-08-19T16:50:12;19.90;99.90
9403;DHT22;4741;49.834;10.740;2022-08-19T16:52:39;19.60;99.90
9403;DHT22;4741;49.834;10.740;2022-08-19T16:57:33;19.90;99.90
9403;DHT22;4741;49.834;10.740;2022-08-19T17:00:00;20.60;99.90
9403;DHT22;4741;49.834;10.740;2022-08-19T17:02:34;20.00;99.90
9403;DHT22;4741;49.834;10.740;2022-08-19T17:05:01;19.30;99.90
9403;DHT22;4741;49.834;10.740;2022-08-19T17:07:28;20.00;99.90
9403;DHT22;4741;49.834;10.740;2022-08-19T17:09:59;19.40;99.90
9403;DHT22;4741;49.834;10.740;2022-08-19T17:12:26;19.80;99.90
9403;DHT22;4741;49.834;10.740;2022-08-19T17:14:59;19.60;99.90
9403;DHT22;4741;49.834;10.740;2022-08-19T17:17:26;20.70;99.90
9403;DHT22;4741;49.834;10.740;2022-08-19T17:19:55;20.40;99.90
9403;DHT22;4741;49.834;10.740;2022-08-19T17:22:22;20.80;99.90
9403;DHT22;4741;49.834;10.740;2022-08-19T17:24:49;21.20;99.90
9403;DHT22;4741;49.834;10.740;2022-08-19T17:27:15;21.20;99.90
9403;DHT22;4741;49.834;10.740;2022-08-19T17:29:42;20.90;99.90
9403;DHT22;4741;49.834;10.740;2022-08-19T17:32:12;20.30;99.90
9403;DHT22;4741;49.834;10.740;2022-08-19T17:34:39;21.80;99.90
9403;DHT22;4741;49.834;10.740;2022-08-19T17:37:06;21.60;99.90
9403;DHT22;4741;49.834;10.740;2022-08-19T17:39:32;19.50;99.90
9403;DHT22;4741;49.834;10.740;2022-08-19T17:42:05;20.30;99.90
9403;DHT22;4741;49.834;10.740;2022-08-19T17:44:33;19.90;99.90
9403;DHT22;4741;49.834;10.740;2022-08-19T17:47:02;19.60;99.90
9403;DHT22;4741;49.834;10.740;2022-08-19T17:49:29;20.50;99.90
9403;DHT22;4741;49.834;10.740;2022-08-19T17:51:58;20.90;99.90
9403;DHT22;4741;49.834;10.740;2022-08-19T17:56:58;19.60;99.90
9403;DHT22;4741;49.834;10.740;2022-08-19T17:59:25;19.90;99.90
9403;DHT22;4741;49.834;10.740;2022-08-19T18:01:55;20.10;99.90
9403;DHT22;4741;49.834;10.740;2022-08-19T18:04:32;20.90;99.90
9403;DHT22;4741;49.834;10.740;2022-08-19T18:07:38;19.40;99.90
9403;DHT22;4741;49.834;10.740;2022-08-19T18:12:37;19.30;99.90
9403;DHT22;4741;49.834;10.740;2022-08-19T18:15:04;20.70;99.90
9403;DHT22;4741;49.834;10.740;2022-08-19T18:17:31;19.50;99.90
9403;DHT22;4741;49.834;10.740;2022-08-19T18:19:58;19.80;99.90
9403;DHT22;4741;49.834;10.740;2022-08-19T18:22:39;20.20;99.90
9403;DHT22;4741;49.834;10.740;2022-08-19T18:25:10;19.20;99.90
9403;DHT22;4741;49.834;10.740;2022-08-19T18:30:06;19.10;99.90
9403;DHT22;4741;49.834;10.740;2022-08-19T18:35:01;19.00;99.90
9403;DHT22;4741;49.834;10.740;2022-08-19T18:42:42;19.10;99.90
9403;DHT22;4741;49.834;10.740;2022-08-19T18:45:42;19.20;99.90
9403;DHT22;4741;49.834;10.740;2022-08-19T18:48:27;18.90;99.90
9403;DHT22;4741;49.834;10.740;2022-08-19T18:51:13;20.10;99.90
9403;DHT22;4741;49.834;10.740;2022-08-19T18:53:40;19.40;99.90
9403;DHT22;4741;49.834;10.740;2022-08-19T18:56:08;20.20;99.90
9403;DHT22;4741;49.834;10.740;2022-08-19T18:58:36;20.40;99.90
9403;DHT22;4741;49.834;10.740;2022-08-19T19:03:43;19.40;99.90
9403;DHT22;4741;49.834;10.740;2022-08-19T19:06:17;19.20;99.90
9403;DHT22;4741;49.834;10.740;2022-08-19T19:08:47;18.90;99.90
9403;DHT22;4741;49.834;10.740;2022-08-19T19:11:16;19.60;99.90
9403;DHT22;4741;49.834;10.740;2022-08-19T19:13:45;18.70;99.90
9403;DHT22;4741;49.834;10.740;2022-08-19T19:16:12;18.70;99.90
9403;DHT22;4741;49.834;10.740;2022-08-19T19:18:39;19.00;99.90
9403;DHT22;4741;49.834;10.740;2022-08-19T19:21:05;18.60;99.90
9403;DHT22;4741;49.834;10.740;2022-08-19T19:23:34;19.00;99.90
9403;DHT22;4741;49.834;10.740;2022-08-19T19:26:06;19.70;99.90
9403;DHT22;4741;49.834;10.740;2022-08-19T19:28:36;19.60;99.90
9403;DHT22;4741;49.834;10.740;2022-08-19T19:31:13;20.00;99.90
9403;DHT22;4741;49.834;10.740;2022-08-19T19:33:40;18.70;99.90
9403;DHT22;4741;49.834;10.740;2022-08-19T19:36:07;19.10;99.90
9403;DHT22;4741;49.834;10.740;2022-08-19T19:38:34;18.80;99.90
9403;DHT22;4741;49.834;10.740;2022-08-19T19:41:01;18.60;99.90
9403;DHT22;4741;49.834;10.740;2022-08-19T19:43:28;17.80;99.90
9403;DHT22;4741;49.834;10.740;2022-08-19T19:46:06;18.20;99.90
9403;DHT22;4741;49.834;10.740;2022-08-19T19:48:33;19.00;99.90
9403;DHT22;4741;49.834;10.740;2022-08-19T19:51:01;19.60;99.90
9403;DHT22;4741;49.834;10.740;2022-08-19T19:53:28;18.60;99.90
9403;DHT22;4741;49.834;10.740;2022-08-19T19:55:55;18.50;99.90
9403;DHT22;4741;49.834;10.740;2022-08-19T19:58:25;18.30;99.90
9403;DHT22;4741;49.834;10.740;2022-08-19T20:00:55;18.60;99.90
9403;DHT22;4741;49.834;10.740;2022-08-19T20:03:21;18.50;99.90
9403;DHT22;4741;49.834;10.740;2022-08-19T20:05:48;18.50;99.90
9403;DHT22;4741;49.834;10.740;2022-08-19T20:08:16;18.50;99.90
9403;DHT22;4741;49.834;10.740;2022-08-19T20:11:02;18.40;99.90
9403;DHT22;4741;49.834;10.740;2022-08-19T20:13:30;18.50;99.90
9403;DHT22;4741;49.834;10.740;2022-08-19T20:15:57;19.20;99.90
9403;DHT22;4741;49.834;10.740;2022-08-19T20:18:24;18.50;99.90
9403;DHT22;4741;49.834;10.740;2022-08-19T20:20:51;18.50;99.90
9403;DHT22;4741;49.834;10.740;2022-08-19T20:23:18;18.70;99.90
9403;DHT22;4741;49.834;10.740;2022-08-19T20:25:46;19.00;99.90
9403;DHT22;4741;49.834;10.740;2022-08-19T20:28:13;18.90;99.90
9403;DHT22;4741;49.834;10.740;2022-08-19T20:30:41;18.80;99.90
9403;DHT22;4741;49.834;10.740;2022-08-19T20:33:12;18.90;99.90
9403;DHT22;4741;49.834;10.740;2022-08-19T20:35:39;18.30;99.90
9403;DHT22;4741;49.834;10.740;2022-08-19T20:38:05;19.00;99.90
9403;DHT22;4741;49.834;10.740;2022-08-19T20:40:34;18.60;99.90
9403;DHT22;4741;49.834;10.740;2022-08-19T20:43:01;18.30;99.90
9403;DHT22;4741;49.834;10.740;2022-08-19T20:45:33;18.30;99.90
9403;DHT22;4741;49.834;10.740;2022-08-19T20:48:02;18.00;99.90
9403;DHT22;4741;49.834;10.740;2022-08-19T20:50:33;18.30;99.90
9403;DHT22;4741;49.834;10.740;2022-08-19T20:53:01;18.30;99.90
9403;DHT22;4741;49.834;10.740;2022-08-19T20:55:33;18.20;99.90
9403;DHT22;4741;49.834;10.740;2022-08-19T20:58:00;18.20;99.90
9403;DHT22;4741;49.834;10.740;2022-08-19T21:00:27;18.40;99.90
9403;DHT22;4741;49.834;10.740;2022-08-19T21:02:55;19.00;99.90
9403;DHT22;4741;49.834;10.740;2022-08-19T21:05:22;18.70;99.90
9403;DHT22;4741;49.834;10.740;2022-08-19T21:07:55;18.30;99.90
9403;DHT22;4741;49.834;10.740;2022-08-19T21:10:23;18.20;99.90
9403;DHT22;4741;49.834;10.740;2022-08-19T21:12:51;18.30;99.90
9403;DHT22;4741;49.834;10.740;2022-08-19T21:15:19;17.10;99.90
9403;DHT22;4741;49.834;10.740;2022-08-19T21:17:45;19.20;99.90
9403;DHT22;4741;49.834;10.740;2022-08-19T21:20:15;18.20;99.90
9403;DHT22;4741;49.834;10.740;2022-08-19T21:22:41;17.10;99.90
9403;DHT22;4741;49.834;10.740;2022-08-19T21:25:08;19.00;99.90
9403;DHT22;4741;49.834;10.740;2022-08-19T21:27:35;18.30;99.90
9403;DHT22;4741;49.834;10.740;2022-08-19T21:30:03;17.90;99.90
9403;DHT22;4741;49.834;10.740;2022-08-19T21:32:30;18.30;99.90
9403;DHT22;4741;49.834;10.740;2022-08-19T21:34:56;18.10;99.90
9403;DHT22;4741;49.834;10.740;2022-08-19T21:37:23;18.20;99.90
9403;DHT22;4741;49.834;10.740;2022-08-19T21:39:52;18.00;99.90
9403;DHT22;4741;49.834;10.740;2022-08-19T21:42:18;17.60;99.90
9403;DHT22;4741;49.834;10.740;2022-08-19T21:44:45;19.00;99.90
9403;DHT22;4741;49.834;10.740;2022-08-19T21:47:12;18.30;99.90
9403;DHT22;4741;49.834;10.740;2022-08-19T21:49:39;18.90;99.90
9403;DHT22;4741;49.834;10.740;2022-08-19T21:52:05;18.50;99.90
9403;DHT22;4741;49.834;10.740;2022-08-19T21:54:32;18.30;99.90
9403;DHT22;4741;49.834;10.740;2022-08-19T21:57:04;18.10;99.90
9403;DHT22;4741;49.834;10.740;2022-08-19T21:59:36;18.20;99.90
9403;DHT22;4741;49.834;10.740;2022-08-19T22:02:13;17.70;99.90
9403;DHT22;4741;49.834;10.740;2022-08-19T22:04:46;18.10;99.90
9403;DHT22;4741;49.834;10.740;2022-08-19T22:07:13;19.10;99.90
9403;DHT22;4741;49.834;10.740;2022-08-19T22:09:40;17.70;99.90
9403;DHT22;4741;49.834;10.740;2022-08-19T22:12:08;18.10;99.90
9403;DHT22;4741;49.834;10.740;2022-08-19T22:14:36;18.20;99.90
9403;DHT22;4741;49.834;10.740;2022-08-19T22:17:03;18.10;99.90
9403;DHT22;4741;49.834;10.740;2022-08-19T22:19:31;18.20;99.90
9403;DHT22;4741;49.834;10.740;2022-08-19T22:21:57;17.90;99.90
9403;DHT22;4741;49.834;10.740;2022-08-19T22:24:24;18.20;99.90
9403;DHT22;4741;49.834;10.740;2022-08-19T22:26:51;17.40;99.90
9403;DHT22;4741;49.834;10.740;2022-08-19T22:29:18;17.90;99.90
9403;DHT22;4741;49.834;10.740;2022-08-19T22:31:51;17.40;99.90
9403;DHT22;4741;49.834;10.740;2022-08-19T22:34:20;18.90;99.90
9403;DHT22;4741;49.834;10.740;2022-08-19T22:36:48;19.30;99.90
9403;DHT22;4741;49.834;10.740;2022-08-19T22:39:15;18.10;99.90
9403;DHT22;4741;49.834;10.740;2022-08-19T22:41:41;19.00;99.90
9403;DHT22;4741;49.834;10.740;2022-08-19T22:44:08;18.40;99.90
9403;DHT22;4741;49.834;10.740;2022-08-19T22:46:36;17.80;99.90
9403;DHT22;4741;49.834;10.740;2022-08-19T22:49:03;18.00;99.90
9403;DHT22;4741;49.834;10.740;2022-08-19T22:51:30;18.00;99.90
9403;DHT22;4741;49.834;10.740;2022-08-19T22:54:16;18.60;99.90
9403;DHT22;4741;49.834;10.740;2022-08-19T22:56:43;18.60;99.90
9403;DHT22;4741;49.834;10.740;2022-08-19T22:59:10;17.10;99.90
9403;DHT22;4741;49.834;10.740;2022-08-19T23:01:36;17.80;99.90
9403;DHT22;4741;49.834;10.740;2022-08-19T23:04:04;18.90;99.90
9403;DHT22;4741;49.834;10.740;2022-08-19T23:06:31;17.80;99.90
9403;DHT22;4741;49.834;10.740;2022-08-19T23:09:00;17.10;99.90
9403;DHT22;4741;49.834;10.740;2022-08-19T23:11:29;18.90;99.90
9403;DHT22;4741;49.834;10.740;2022-08-19T23:13:56;18.70;99.90
9403;DHT22;4741;49.834;10.740;2022-08-19T23:16:23;19.30;99.90
9403;DHT22;4741;49.834;10.740;2022-08-19T23:18:50;19.90;99.90